• Join FlightAware (Why Join?)
  • Login
  • US Flag 
10:55AM EDT


 

Airport Tracker/Info


-or-


 

Live Flight TrackerFlight Track Log ✈ EVA5205 ✈ 07-May-2013 ✈ YSSY / SYD - YNBR / NAA

Flight Track Log - Related Links

Times and Time Zones

All times are in EDT time to prevent confusion due to time zone crossing. See the EVA5205 flight status page for this flight to view local times or setup timezone preferences in your user account.

Time Position Orientation Groundspeed Altitude Reporting Facility
EDT Latitude Longitude Course Direction KTS MPH feet Rate Location/Type
09:47PM -33.8896 151.2092 182° South 16,000  Level Aus ATC (Calculated)
09:48PM -33.9904 151.2060 129° Southeast 142 163 1,400 -9,840 Descending Aus ATC (RADAR)
09:49PM -34.0097 151.2348 129° Southeast 149 171 2,900 1,620 Climbing Aus ATC (RADAR)
09:49PM -34.0222 151.2522 131° Southeast 162 186 3,300 1,080 Climbing Aus ATC (RADAR)
09:50PM -34.0420 151.2966 118° Southeast 184 212 4,300 900 Climbing Aus ATC (RADAR)
09:51PM -34.0170 151.3215 39° Northeast 210 242 4,600 600 Climbing Aus ATC (RADAR)
09:51PM -33.9804 151.3231 North 226 260 5,000 300 Climbing Aus ATC (RADAR)
09:52PM -33.9312 151.3337 10° North 243 280 5,000  Level Aus ATC (RADAR)
09:52PM -33.9024 151.3390 North 251 289 5,000 960 Level Aus ATC (RADAR)
09:53PM -33.8646 151.3480 11° North 235 270 6,000 1,800 Climbing Aus ATC (RADAR)
09:54PM -33.8165 151.3560 North 206 237 7,600 1,740 Climbing Aus ATC (RADAR)
09:54PM -33.7844 151.3607 North 202 232 8,500 1,200 Climbing Aus ATC (RADAR)
09:55PM -33.7413 151.3677 North 210 242 9,200 1,020 Climbing Aus ATC (RADAR)
09:56PM -33.7070 151.3741 North 214 246 9,900 1,260 Climbing Aus ATC (RADAR)
09:56PM -33.6736 151.3777 North 206 237 10,700 1,200 Climbing Aus ATC (RADAR)
09:57PM -33.6267 151.3855 North 206 237 11,600 1,020 Climbing Aus ATC (RADAR)
09:58PM -33.6026 151.3895 North 209 241 12,000 900 Climbing Aus ATC (RADAR)
09:58PM -33.5685 151.3940 North 212 244 12,500 1,020 Climbing Aus ATC (RADAR)
09:59PM -33.5348 151.4003 North 211 243 13,200 960 Climbing Aus ATC (RADAR)
09:59PM -33.4957 151.4084 10° North 215 247 13,700 720 Climbing Aus ATC (RADAR)
10:00PM -33.4503 151.4165 North 221 254 14,300 900 Climbing Aus ATC (RADAR)
10:01PM -33.4150 151.4245 11° North 221 254 14,900 840 Climbing Aus ATC (RADAR)
10:01PM -33.3789 151.4306 North 226 260 15,300 720 Climbing Aus ATC (RADAR)
10:02PM -33.3316 151.4358 North 228 262 15,900 660 Climbing Aus ATC (RADAR)
10:02PM -33.3053 151.4401 North 230 265 16,100 300 Climbing Aus ATC (RADAR)
10:03PM -33.2665 151.4456 North 240 276 16,200 120 Climbing Aus ATC (RADAR)
10:04PM -33.2094 151.4569 North 249 287 16,300 60 Climbing Aus ATC (RADAR)
10:04PM -33.1677 151.4640 North 259 298 16,300  Level Aus ATC (RADAR)
10:06PM -33.0573 151.4818 North 268 308 16,300  Level Aus ATC (RADAR)
10:07PM -32.9539 151.4954 North 260 299 16,400 60 Climbing Aus ATC (RADAR)
10:08PM -32.9362 151.4992 10° North 260 299 16,400 -120 Level Aus ATC (RADAR)
10:08PM -32.8885 151.5068 North 260 299 16,300 -120 Descending Aus ATC (RADAR)
10:09PM -32.8468 151.5129 North 259 298 16,300  Level Aus ATC (RADAR)
10:10PM -32.7874 151.5245 North 260 299 16,300  Level Aus ATC (RADAR)
10:11PM -32.7234 151.5171 354° North 251 289 16,400 60 Climbing Aus ATC (RADAR)
10:11PM -32.6788 151.4981 340° North 252 290 16,400  Level Aus ATC (RADAR)
10:12PM -32.6398 151.4794 338° Northwest 256 295 16,400  Level Aus ATC (RADAR)
10:13PM -32.5891 151.4587 341° North 257 296 16,400  Level Aus ATC (RADAR)
10:13PM -32.5614 151.4463 339° North 256 295 16,400  Level Aus ATC (RADAR)
10:14PM -32.5160 151.4291 342° North 257 296 16,400  Level Aus ATC (RADAR)
10:14PM -32.4654 151.4092 342° North 256 295 16,400  Level Aus ATC (RADAR)
10:15PM -32.4252 151.3956 344° North 258 297 16,400 -60 Level Aus ATC (RADAR)
10:16PM -32.3417 151.3592 340° North 253 291 16,300  Descending Aus ATC (RADAR)
10:17PM -32.3139 151.3459 338° Northwest 257 296 16,400  Climbing Aus ATC (RADAR)
10:17PM -32.2748 151.3295 341° North 257 296 16,300 -120 Descending Aus ATC (RADAR)
10:18PM -32.2294 151.3123 342° North 258 297 16,300  Level Aus ATC (RADAR)
10:19PM -32.1906 151.2968 341° North 251 289 16,300  Level Aus ATC (RADAR)
10:19PM -32.1400 151.2746 340° North 256 295 16,300 60 Level Aus ATC (RADAR)
10:20PM -32.1067 151.2621 342° North 251 289 16,400  Climbing Aus ATC (RADAR)
10:21PM -32.0401 151.2318 339° North 254 292 16,300 -180 Descending Aus ATC (RADAR)
10:21PM -32.0125 151.2193 339° North 256 295 16,200 120 Descending Aus ATC (RADAR)
10:22PM -31.9847 151.2073 340° North 255 293 16,400  Climbing Aus ATC (RADAR)
10:22PM -31.9453 151.1921 342° North 257 296 16,200 -120 Descending Aus ATC (RADAR)
10:23PM -31.8945 151.1736 343° North 256 295 16,300 60 Climbing Aus ATC (RADAR)
10:24PM -31.8557 151.1574 340° North 254 292 16,300 -120 Level Aus ATC (RADAR)
10:24PM -31.7945 151.1315 340° North 255 293 16,200 -120 Descending Aus ATC (RADAR)
10:25PM -31.7778 151.1244 340° North 255 293 16,200 120 Level Aus ATC (RADAR)
10:25PM -31.7390 151.1078 340° North 255 293 16,300  Climbing Aus ATC (RADAR)
10:27PM -31.6491 151.0717 341° North 257 296 16,200 -120 Descending Aus ATC (RADAR)
10:27PM -31.6326 151.0646 340° North 255 293 16,200  Level Aus ATC (RADAR)
10:27PM -31.5933 151.0487 341° North 257 296 16,200  Level Aus ATC (RADAR)
10:28PM -31.5376 151.0258 341° North 255 293 16,200 120 Level Aus ATC (RADAR)
10:29PM -31.4984 151.0109 342° North 254 292 16,400  Climbing Aus ATC (RADAR)
10:30PM -31.4426 150.9868 340° North 256 295 16,200 -240 Descending Aus ATC (RADAR)
10:30PM -31.4257 150.9799 341° North 256 295 16,200  Level Aus ATC (RADAR)
10:31PM -31.3428 150.9452 340° North 252 290 16,200  Level Aus ATC (RADAR)
10:32PM -31.3091 150.9308 340° North 256 295 16,200  Level Aus ATC (RADAR)
10:33PM -31.2535 150.9085 341° North 253 291 16,200  Level Aus ATC (RADAR)
10:33PM -31.1988 150.8851 340° North 248 285 16,200 60 Level Aus ATC (RADAR)
10:34PM -31.1600 150.8680 339° North 252 290 16,300  Climbing Aus ATC (RADAR)
10:35PM -31.1100 150.8475 341° North 255 293 16,200 -120 Descending Aus ATC (RADAR)
10:35PM -31.0830 150.8362 340° North 250 288 16,200 60 Level Aus ATC (RADAR)
10:36PM -31.0157 150.7654 318° Northwest 242 278 16,400  Climbing Aus ATC (RADAR)
10:37PM -31.0011 150.7449 310° West 244 281 16,300 -240 Descending Aus ATC (RADAR)
10:37PM -30.9751 150.7097 311° West 244 281 16,200 -120 Descending Aus ATC (RADAR)
10:38PM -30.9490 150.6746 311° West 242 278 16,200  Level Aus ATC (RADAR)
10:39PM -30.9146 150.6288 311° West 245 282 16,200  Level Aus ATC (RADAR)
10:39PM -30.8886 150.5929 310° West 247 284 16,200  Level Aus ATC (RADAR)
10:40PM -30.8548 150.5471 311° West 247 284 16,200 120 Level Aus ATC (RADAR)
10:40PM -30.8358 150.5222 312° West 245 282 16,400 -600 Climbing Aus ATC (RADAR)
10:41PM -30.7976 150.4708 311° West 254 292 15,500 -1,380 Descending Aus ATC (RADAR)
10:42PM -30.7640 150.4221 309° West 285 328 14,400 -1,440 Descending Aus ATC (RADAR)
10:42PM -30.7348 150.3784 308° West 292 336 13,700 -1,380 Descending Aus ATC (RADAR)
10:43PM -30.6911 150.3167 309° West 297 342 12,500 -1,440 Descending Aus ATC (RADAR)
10:44PM -30.6727 150.2940 313° West 294 338 12,100 -1,440 Descending Aus ATC (RADAR)
10:44PM -30.6402 150.2529 313° West 293 337 11,200 -1,680 Descending Aus ATC (RADAR)
10:45PM -30.5993 150.2018 313° West 289 333 9,900 -1,800 Descending Aus ATC (RADAR)
10:46PM -30.5700 150.1602 309° West 286 329 8,800 -1,440 Descending Aus ATC (RADAR)
10:47PM -30.5127 150.0819 310° West 266 306 7,400 -1,380 Descending Aus ATC (RADAR)
10:47PM -30.4936 150.0553 310° West 260 299 6,700 -1,500 Descending Aus ATC (RADAR)
10:48PM -30.4660 150.0179 311° West 262 302 5,900 -1,320 Descending Aus ATC (RADAR)
10:48PM -30.4299 149.9714 312° West 259 298 5,000 -1,140 Descending Aus ATC (RADAR)
10:49PM -30.4027 149.9352 311° West 255 293 4,400 -1,320 Descending Aus ATC (RADAR)
10:50PM -30.3620 149.8858 314° West 255 293 3,200 -1,500 Descending Aus ATC (RADAR)
10:50PM -30.3478 149.8647 308° West 253 291 2,700 -1,500 Descending Aus ATC (RADAR)